createdAt,value
2018-05-15T00:00:32.591Z,20.10
2018-05-15T00:01:10.946Z,20.10
2018-05-15T00:01:48.517Z,20.10
2018-05-15T00:02:26.794Z,20.10
2018-05-15T00:03:04.163Z,20.10
2018-05-15T00:03:41.759Z,20.10
2018-05-15T00:04:19.346Z,20.20
2018-05-15T00:04:57.456Z,20.20
2018-05-15T00:05:35.646Z,20.20
2018-05-15T00:06:13.024Z,20.20
2018-05-15T00:06:50.548Z,20.20
2018-05-15T00:07:28.111Z,20.20
2018-05-15T00:08:05.525Z,20.30
2018-05-15T00:08:43.030Z,20.30
2018-05-15T00:09:21.346Z,20.20
2018-05-15T00:09:58.894Z,20.20
2018-05-15T00:10:36.383Z,20.20
2018-05-15T00:11:14.765Z,20.20
2018-05-15T00:11:52.139Z,20.20
2018-05-15T00:12:29.656Z,20.10
2018-05-15T00:13:07.232Z,20.10
2018-05-15T00:13:44.684Z,20.10
2018-05-15T00:14:22.341Z,20.10
2018-05-15T00:14:59.896Z,20.10
2018-05-15T00:15:37.470Z,20.10
2018-05-15T00:16:15.208Z,20.10
2018-05-15T00:16:52.720Z,20.10
2018-05-15T00:17:30.213Z,20.10
2018-05-15T00:18:07.795Z,20.10
2018-05-15T00:18:45.516Z,20.10
2018-05-15T00:19:23.194Z,20.10
2018-05-15T00:20:00.576Z,20.10
2018-05-15T00:20:38.107Z,20.00
2018-05-15T00:21:15.698Z,20.10
2018-05-15T00:21:53.280Z,20.10
2018-05-15T00:22:30.850Z,20.10
2018-05-15T00:23:08.465Z,20.10
2018-05-15T00:23:46.090Z,20.10
2018-05-15T00:24:23.696Z,20.10
2018-05-15T00:25:01.265Z,20.10
2018-05-15T00:25:38.834Z,20.10
2018-05-15T00:26:16.439Z,20.10
2018-05-15T00:26:53.987Z,20.10
2018-05-15T00:27:31.331Z,20.10
2018-05-15T00:28:08.746Z,20.10
2018-05-15T00:28:46.876Z,20.10
2018-05-15T00:29:24.457Z,20.10
2018-05-15T00:30:02.033Z,20.10
2018-05-15T00:30:39.523Z,20.10
2018-05-15T00:31:17.062Z,20.20
2018-05-15T00:31:54.420Z,20.10
2018-05-15T00:32:31.756Z,20.20
2018-05-15T00:33:09.254Z,20.10
2018-05-15T00:33:46.700Z,20.10
2018-05-15T00:34:24.875Z,20.10
2018-05-15T00:35:02.487Z,20.10
2018-05-15T00:35:40.854Z,20.10
2018-05-15T00:36:18.202Z,20.10
2018-05-15T00:36:55.591Z,20.10
2018-05-15T00:37:33.229Z,20.20
2018-05-15T00:38:11.366Z,20.20
2018-05-15T00:38:49.505Z,20.20
2018-05-15T00:39:26.922Z,20.20
2018-05-15T00:40:04.563Z,20.20
2018-05-15T00:40:42.141Z,20.20
2018-05-15T00:41:19.711Z,20.20
2018-05-15T00:41:57.288Z,20.20
2018-05-15T00:42:34.746Z,20.20
2018-05-15T00:43:12.211Z,20.20
2018-05-15T00:43:49.793Z,20.20
2018-05-15T00:44:27.143Z,20.20
2018-05-15T00:45:04.676Z,20.20
2018-05-15T00:45:42.310Z,20.20
2018-05-15T00:46:20.468Z,20.20
2018-05-15T00:46:58.057Z,20.20
2018-05-15T00:47:35.623Z,20.20
2018-05-15T00:48:13.186Z,20.20
2018-05-15T00:48:50.586Z,20.30
2018-05-15T00:49:28.159Z,20.20
2018-05-15T00:50:05.783Z,20.20
2018-05-15T00:50:43.325Z,20.30
2018-05-15T00:51:21.538Z,20.20
2018-05-15T00:51:59.098Z,20.20
2018-05-15T00:52:36.679Z,20.30
2018-05-15T00:53:15.089Z,20.20
2018-05-15T00:53:52.710Z,20.20
2018-05-15T00:54:30.950Z,20.20
2018-05-15T00:55:09.049Z,20.20
2018-05-15T00:55:46.630Z,20.10
2018-05-15T00:56:24.243Z,20.20
2018-05-15T00:57:01.836Z,20.20
2018-05-15T00:57:39.375Z,20.20
2018-05-15T00:58:16.944Z,20.20
2018-05-15T00:58:54.245Z,20.10
2018-05-15T00:59:31.851Z,20.10
2018-05-15T01:00:09.234Z,20.10
2018-05-15T01:00:46.774Z,20.10
2018-05-15T01:01:24.148Z,20.20
2018-05-15T01:02:02.438Z,20.20
2018-05-15T01:02:39.752Z,20.20
2018-05-15T01:03:17.198Z,20.10
2018-05-15T01:03:54.530Z,20.10
2018-05-15T01:04:31.930Z,20.10
2018-05-15T01:05:09.244Z,20.10
2018-05-15T01:05:46.587Z,20.10
2018-05-15T01:06:23.899Z,20.10
2018-05-15T01:07:01.491Z,20.10
2018-05-15T01:07:38.896Z,20.10
2018-05-15T01:08:16.508Z,20.10
2018-05-15T01:08:53.983Z,20.10
2018-05-15T01:09:31.355Z,20.10
2018-05-15T01:10:09.689Z,20.10
2018-05-15T01:10:47.326Z,20.10
2018-05-15T01:11:24.862Z,20.10
2018-05-15T01:12:02.275Z,20.10
2018-05-15T01:12:39.899Z,20.10
2018-05-15T01:13:17.481Z,20.10
2018-05-15T01:13:55.077Z,20.10
2018-05-15T01:14:33.442Z,20.10
2018-05-15T01:15:11.052Z,20.10
2018-05-15T01:15:48.403Z,20.10
2018-05-15T01:16:26.714Z,20.00
2018-05-15T01:17:04.285Z,20.00
2018-05-15T01:17:41.784Z,20.00
2018-05-15T01:18:19.214Z,20.00
2018-05-15T01:18:56.710Z,20.10
2018-05-15T01:19:34.019Z,20.10
2018-05-15T01:20:11.595Z,20.00
2018-05-15T01:20:49.152Z,20.00
2018-05-15T01:21:26.504Z,20.00
2018-05-15T01:22:03.928Z,20.00
2018-05-15T01:22:41.504Z,20.00
2018-05-15T01:23:19.893Z,20.00
2018-05-15T01:23:58.179Z,20.00
2018-05-15T01:24:36.502Z,20.00
2018-05-15T01:25:13.938Z,19.90
2018-05-15T01:25:51.412Z,20.00
2018-05-15T01:26:28.749Z,20.00
2018-05-15T01:27:07.033Z,20.00
2018-05-15T01:27:44.623Z,20.00
2018-05-15T01:28:22.134Z,20.10
2018-05-15T01:28:59.538Z,20.10
2018-05-15T01:29:36.913Z,20.10
2018-05-15T01:30:14.287Z,20.10
2018-05-15T01:30:51.915Z,20.20
2018-05-15T01:31:29.495Z,20.10
2018-05-15T01:32:07.139Z,20.10
2018-05-15T01:32:44.657Z,20.10
2018-05-15T01:33:22.034Z,20.10
2018-05-15T01:33:59.375Z,20.00
2018-05-15T01:34:36.739Z,20.00
2018-05-15T01:35:14.254Z,20.00
2018-05-15T01:35:52.542Z,20.00
2018-05-15T01:36:29.937Z,19.90
2018-05-15T01:37:07.488Z,20.00
2018-05-15T01:37:45.043Z,20.00
2018-05-15T01:38:22.366Z,20.00
2018-05-15T01:39:00.068Z,20.00
2018-05-15T01:39:37.638Z,20.00
2018-05-15T01:40:15.104Z,20.00
2018-05-15T01:40:52.599Z,20.00
2018-05-15T01:41:30.072Z,20.00
2018-05-15T01:42:07.406Z,20.00
2018-05-15T01:42:44.885Z,20.00
2018-05-15T01:43:22.268Z,20.00
2018-05-15T01:43:59.669Z,20.00
2018-05-15T01:44:37.992Z,20.00
2018-05-15T01:45:15.568Z,20.00
2018-05-15T01:45:53.120Z,20.00
2018-05-15T01:46:30.738Z,20.00
2018-05-15T01:47:08.307Z,20.00
2018-05-15T01:47:45.798Z,20.00
2018-05-15T01:48:23.247Z,20.00
2018-05-15T01:49:01.555Z,20.00
2018-05-15T01:49:39.149Z,20.00
2018-05-15T01:50:16.743Z,20.00
2018-05-15T01:50:54.319Z,20.00
2018-05-15T01:51:31.875Z,19.90
2018-05-15T01:52:09.192Z,19.90
2018-05-15T01:52:46.498Z,20.00
2018-05-15T01:53:24.938Z,20.00
2018-05-15T01:54:02.269Z,20.00
2018-05-15T01:54:40.393Z,20.00
2018-05-15T01:55:18.318Z,20.00
2018-05-15T01:55:55.886Z,20.00
2018-05-15T01:56:33.263Z,20.00
2018-05-15T01:57:10.827Z,20.00
2018-05-15T01:57:48.383Z,20.00
2018-05-15T01:58:25.862Z,20.00
2018-05-15T01:59:03.389Z,20.00
2018-05-15T01:59:40.780Z,20.00
2018-05-15T02:00:18.893Z,19.90
2018-05-15T02:00:56.482Z,19.90
2018-05-15T02:01:33.838Z,20.00
2018-05-15T02:02:11.458Z,20.00
2018-05-15T02:02:49.058Z,19.90
2018-05-15T02:03:26.608Z,19.90
2018-05-15T02:04:04.162Z,19.90
2018-05-15T02:04:41.502Z,19.80
2018-05-15T02:05:18.910Z,19.90
2018-05-15T02:05:56.267Z,19.90
2018-05-15T02:06:33.879Z,19.80
2018-05-15T02:07:11.417Z,19.90
2018-05-15T02:07:48.971Z,19.90
2018-05-15T02:08:26.485Z,19.90
2018-05-15T02:09:04.617Z,19.90
2018-05-15T02:09:42.191Z,19.90
2018-05-15T02:10:20.479Z,19.90
2018-05-15T02:10:58.083Z,19.90
2018-05-15T02:11:36.186Z,20.00
2018-05-15T02:12:13.706Z,20.00
2018-05-15T02:12:51.118Z,20.00
2018-05-15T02:13:29.415Z,19.90
2018-05-15T02:14:07.513Z,19.90
2018-05-15T02:14:45.120Z,19.90
2018-05-15T02:15:23.392Z,19.90
2018-05-15T02:16:00.967Z,19.90
2018-05-15T02:16:38.319Z,19.90
2018-05-15T02:17:15.625Z,19.90
2018-05-15T02:17:53.255Z,19.90
2018-05-15T02:18:31.416Z,19.90
2018-05-15T02:19:08.949Z,19.80
2018-05-15T02:19:47.079Z,19.80
2018-05-15T02:20:25.407Z,19.80
2018-05-15T02:21:03.679Z,19.80
2018-05-15T02:21:41.863Z,19.80
2018-05-15T02:22:19.968Z,19.80
2018-05-15T02:22:57.570Z,19.80
2018-05-15T02:23:35.734Z,19.70
2018-05-15T02:24:13.079Z,19.70
2018-05-15T02:24:50.427Z,19.70
2018-05-15T02:25:27.969Z,19.70
2018-05-15T02:26:05.520Z,19.70
2018-05-15T02:26:43.052Z,19.70
2018-05-15T02:27:20.613Z,19.70
2018-05-15T02:27:58.228Z,19.60
2018-05-15T02:28:35.830Z,19.60
2018-05-15T02:29:13.358Z,19.60
2018-05-15T02:29:50.920Z,19.50
2018-05-15T02:30:28.298Z,19.60
2018-05-15T02:31:05.851Z,19.60
2018-05-15T02:31:43.241Z,19.60
2018-05-15T02:32:21.572Z,19.60
2018-05-15T02:32:59.155Z,19.60
2018-05-15T02:33:36.742Z,19.60
2018-05-15T02:34:14.375Z,19.60
2018-05-15T02:34:51.953Z,19.60
2018-05-15T02:35:29.478Z,19.70
2018-05-15T02:36:07.087Z,19.70
2018-05-15T02:36:44.454Z,19.70
2018-05-15T02:37:21.856Z,19.70
2018-05-15T02:37:59.379Z,19.80
2018-05-15T02:38:37.631Z,19.80
2018-05-15T02:39:15.204Z,19.80
2018-05-15T02:39:53.511Z,19.80
2018-05-15T02:40:30.970Z,19.80
2018-05-15T02:41:08.495Z,19.80
2018-05-15T02:41:46.059Z,19.80
2018-05-15T02:42:23.671Z,19.80
2018-05-15T02:43:01.179Z,19.70
2018-05-15T02:43:38.711Z,19.70
2018-05-15T02:44:16.910Z,19.70
2018-05-15T02:44:54.394Z,19.70
2018-05-15T02:45:31.977Z,19.60
2018-05-15T02:46:09.549Z,19.60
2018-05-15T02:46:47.142Z,19.50
2018-05-15T02:47:24.717Z,19.50
2018-05-15T02:48:02.135Z,19.50
2018-05-15T02:48:39.663Z,19.50
2018-05-15T02:49:17.945Z,19.40
2018-05-15T02:49:55.563Z,19.40
2018-05-15T02:50:33.104Z,19.30
2018-05-15T02:51:10.522Z,19.40
2018-05-15T02:51:48.066Z,19.40
2018-05-15T02:52:25.643Z,19.40
2018-05-15T02:53:03.215Z,19.50
2018-05-15T02:53:40.568Z,19.50
2018-05-15T02:54:18.724Z,19.40
2018-05-15T02:54:56.314Z,19.50
2018-05-15T02:55:33.839Z,19.50
2018-05-15T02:56:11.241Z,19.50
2018-05-15T02:56:48.762Z,19.50
2018-05-15T02:57:26.234Z,19.50
2018-05-15T02:58:03.885Z,19.50
2018-05-15T02:58:41.235Z,19.50
2018-05-15T02:59:18.625Z,19.60
2018-05-15T02:59:55.982Z,19.60
2018-05-15T03:00:34.224Z,19.70
2018-05-15T03:01:11.804Z,19.60
2018-05-15T03:01:49.425Z,19.60
2018-05-15T03:02:26.965Z,19.70
2018-05-15T03:03:04.338Z,19.70
2018-05-15T03:03:42.454Z,19.80
2018-05-15T03:04:20.080Z,19.70
2018-05-15T03:04:57.607Z,19.80
2018-05-15T03:05:35.036Z,19.80
2018-05-15T03:06:12.436Z,19.80
2018-05-15T03:06:49.938Z,19.80
2018-05-15T03:07:27.471Z,19.80
2018-05-15T03:08:05.801Z,19.80
2018-05-15T03:08:43.390Z,19.80
2018-05-15T03:09:20.992Z,19.80
2018-05-15T03:09:58.552Z,19.70
2018-05-15T03:10:36.827Z,19.70
2018-05-15T03:11:15.159Z,19.70
2018-05-15T03:11:52.731Z,19.70
2018-05-15T03:12:30.135Z,19.70
2018-05-15T03:13:07.514Z,19.70
2018-05-15T03:13:45.076Z,19.70
2018-05-15T03:14:22.621Z,19.70
2018-05-15T03:15:00.131Z,19.80
2018-05-15T03:15:37.633Z,19.80
2018-05-15T03:16:15.184Z,19.80
2018-05-15T03:16:52.779Z,19.80
2018-05-15T03:17:30.255Z,19.80
2018-05-15T03:18:07.843Z,19.80
2018-05-15T03:18:45.414Z,19.80
2018-05-15T03:19:22.984Z,19.80
2018-05-15T03:20:00.561Z,19.70
2018-05-15T03:20:38.133Z,19.80
2018-05-15T03:21:16.451Z,19.70
2018-05-15T03:21:54.062Z,19.70
2018-05-15T03:22:31.590Z,19.70
2018-05-15T03:23:08.898Z,19.70
2018-05-15T03:23:46.460Z,19.70
2018-05-15T03:24:24.071Z,19.70
2018-05-15T03:25:02.224Z,19.70
2018-05-15T03:25:40.350Z,19.70
2018-05-15T03:26:18.538Z,19.60
2018-05-15T03:26:56.148Z,19.60
2018-05-15T03:27:33.690Z,19.60
2018-05-15T03:28:11.266Z,19.60
2018-05-15T03:28:48.870Z,19.60
2018-05-15T03:29:26.944Z,19.60
2018-05-15T03:30:05.302Z,19.70
2018-05-15T03:30:42.824Z,19.60
2018-05-15T03:31:20.323Z,19.60
2018-05-15T03:31:57.868Z,19.50
2018-05-15T03:32:35.492Z,19.60
2018-05-15T03:33:13.038Z,19.60
2018-05-15T03:33:50.390Z,19.60
2018-05-15T03:34:27.795Z,19.60
2018-05-15T03:35:05.385Z,19.60
2018-05-15T03:35:43.462Z,19.60
2018-05-15T03:36:21.048Z,19.60
2018-05-15T03:36:58.421Z,19.60
2018-05-15T03:37:36.031Z,19.60
2018-05-15T03:38:13.604Z,19.60
2018-05-15T03:38:51.069Z,19.60
2018-05-15T03:39:28.640Z,19.70
2018-05-15T03:40:06.198Z,19.60
2018-05-15T03:40:43.816Z,19.60
2018-05-15T03:41:21.427Z,19.50
2018-05-15T03:41:58.938Z,19.50
2018-05-15T03:42:36.474Z,19.50
2018-05-15T03:43:14.037Z,19.50
2018-05-15T03:43:51.395Z,19.50
2018-05-15T03:44:28.959Z,19.60
2018-05-15T03:45:07.139Z,19.60
2018-05-15T03:45:44.708Z,19.60
2018-05-15T03:46:22.222Z,19.60
2018-05-15T03:47:00.540Z,19.70
2018-05-15T03:47:38.138Z,19.70
2018-05-15T03:48:15.469Z,19.70
2018-05-15T03:48:53.066Z,19.70
2018-05-15T03:49:30.585Z,19.60
2018-05-15T03:50:08.157Z,19.60
2018-05-15T03:50:45.750Z,19.60
2018-05-15T03:51:23.304Z,19.60
2018-05-15T03:52:00.652Z,19.60
2018-05-15T03:52:38.791Z,19.60
2018-05-15T03:53:16.326Z,19.60
2018-05-15T03:53:53.736Z,19.60
2018-05-15T03:54:31.345Z,19.60
2018-05-15T03:55:08.929Z,19.70
2018-05-15T03:55:47.438Z,19.70
2018-05-15T03:56:24.979Z,19.70
2018-05-15T03:57:02.263Z,19.70
2018-05-15T03:57:39.837Z,19.70
2018-05-15T03:58:17.423Z,19.70
2018-05-15T03:58:54.798Z,19.70
2018-05-15T03:59:33.304Z,19.70
2018-05-15T04:00:10.748Z,19.70
2018-05-15T04:00:49.075Z,19.70
2018-05-15T04:01:26.659Z,19.70
2018-05-15T04:02:04.313Z,19.70
2018-05-15T04:02:42.597Z,19.70
2018-05-15T04:03:20.126Z,19.70
2018-05-15T04:03:57.722Z,19.70
2018-05-15T04:04:35.339Z,19.70
2018-05-15T04:05:12.892Z,19.70
2018-05-15T04:05:50.462Z,19.70
2018-05-15T04:06:27.930Z,19.70
2018-05-15T04:07:05.335Z,19.70
2018-05-15T04:07:42.742Z,19.70
2018-05-15T04:08:20.898Z,19.70
2018-05-15T04:08:58.498Z,19.60
2018-05-15T04:09:35.930Z,19.70
2018-05-15T04:10:13.431Z,19.70
2018-05-15T04:10:50.828Z,19.60
2018-05-15T04:11:28.326Z,19.60
2018-05-15T04:12:05.733Z,19.60
2018-05-15T04:12:43.090Z,19.60
2018-05-15T04:13:20.450Z,19.60
2018-05-15T04:13:58.600Z,19.60
2018-05-15T04:14:35.929Z,19.60
2018-05-15T04:15:13.277Z,19.60
2018-05-15T04:15:51.554Z,19.70
2018-05-15T04:16:29.160Z,19.70
2018-05-15T04:17:06.628Z,19.70
2018-05-15T04:17:44.199Z,19.70
2018-05-15T04:18:21.807Z,19.70
2018-05-15T04:18:59.222Z,19.70
2018-05-15T04:19:36.746Z,19.70
2018-05-15T04:20:14.306Z,19.70
2018-05-15T04:20:51.907Z,19.70
2018-05-15T04:21:30.299Z,19.70
2018-05-15T04:22:07.849Z,19.70
2018-05-15T04:22:45.194Z,19.70
2018-05-15T04:23:22.650Z,19.70
2018-05-15T04:24:00.192Z,19.70
2018-05-15T04:24:38.608Z,19.70
2018-05-15T04:25:16.883Z,19.70
2018-05-15T04:25:54.487Z,19.60
2018-05-15T04:26:32.103Z,19.60
2018-05-15T04:27:10.261Z,19.70
2018-05-15T04:27:47.637Z,19.60
2018-05-15T04:28:25.283Z,19.70
2018-05-15T04:29:02.811Z,19.60
2018-05-15T04:29:40.407Z,19.60
2018-05-15T04:30:17.971Z,19.50
2018-05-15T04:30:55.328Z,19.60
2018-05-15T04:31:32.683Z,19.60
2018-05-15T04:32:10.199Z,19.60
2018-05-15T04:32:47.760Z,19.60
2018-05-15T04:33:26.054Z,19.60
2018-05-15T04:34:03.441Z,19.60
2018-05-15T04:34:40.896Z,19.70
2018-05-15T04:35:18.394Z,19.70
2018-05-15T04:35:55.630Z,19.70
2018-05-15T04:36:32.974Z,19.60
2018-05-15T04:37:11.141Z,19.60
2018-05-15T04:37:48.723Z,19.60
2018-05-15T04:38:26.347Z,19.70
2018-05-15T04:39:03.875Z,19.70
2018-05-15T04:39:42.187Z,19.80
2018-05-15T04:40:20.290Z,19.80
2018-05-15T04:40:57.766Z,19.80
2018-05-15T04:41:35.384Z,19.80
2018-05-15T04:42:12.957Z,19.80
2018-05-15T04:42:50.429Z,19.80
2018-05-15T04:43:27.985Z,19.80
2018-05-15T04:44:05.578Z,19.80
2018-05-15T04:44:43.133Z,19.70
2018-05-15T04:45:20.715Z,19.70
2018-05-15T04:45:58.089Z,19.70
2018-05-15T04:46:36.406Z,19.80
2018-05-15T04:47:13.778Z,19.80
2018-05-15T04:47:51.956Z,19.80
2018-05-15T04:48:30.071Z,19.90
2018-05-15T04:49:07.413Z,19.80
2018-05-15T04:49:44.771Z,19.80
2018-05-15T04:50:22.394Z,19.90
2018-05-15T04:51:00.796Z,20.00
2018-05-15T04:51:38.409Z,20.00
2018-05-15T04:52:15.963Z,20.00
2018-05-15T04:52:53.475Z,19.90
2018-05-15T04:53:31.731Z,20.00
2018-05-15T04:54:09.333Z,20.00
2018-05-15T04:54:46.926Z,20.00
2018-05-15T04:55:24.538Z,20.00
2018-05-15T04:56:02.187Z,20.00
2018-05-15T04:56:39.651Z,20.00
2018-05-15T04:57:17.243Z,20.00
2018-05-15T04:57:54.759Z,20.00
2018-05-15T04:58:32.257Z,20.00
2018-05-15T04:59:09.889Z,20.00
2018-05-15T04:59:47.467Z,20.00
2018-05-15T05:00:24.944Z,19.90
2018-05-15T05:01:02.373Z,19.90
2018-05-15T05:01:39.927Z,19.90
2018-05-15T05:02:18.280Z,19.90
2018-05-15T05:02:55.874Z,19.90
2018-05-15T05:03:33.365Z,19.90
2018-05-15T05:04:10.734Z,19.90
2018-05-15T05:04:48.304Z,19.90
2018-05-15T05:05:26.453Z,20.00
2018-05-15T05:06:03.995Z,20.00
2018-05-15T05:06:41.556Z,20.00
2018-05-15T05:07:19.142Z,20.10
2018-05-15T05:07:56.500Z,20.10
2018-05-15T05:08:34.814Z,20.30
2018-05-15T05:09:12.339Z,20.30
2018-05-15T05:09:49.891Z,20.30
2018-05-15T05:10:28.056Z,20.40
2018-05-15T05:11:05.440Z,20.40
2018-05-15T05:11:43.019Z,20.40
2018-05-15T05:12:21.399Z,20.40
2018-05-15T05:12:58.903Z,20.40
2018-05-15T05:13:36.482Z,20.40
2018-05-15T05:14:14.093Z,20.40
2018-05-15T05:14:52.248Z,20.20
2018-05-15T05:15:30.353Z,20.20
2018-05-15T05:16:07.917Z,20.20
2018-05-15T05:16:45.308Z,20.10
2018-05-15T05:17:23.588Z,20.00
2018-05-15T05:18:00.976Z,20.00
2018-05-15T05:18:38.538Z,20.00
2018-05-15T05:19:16.096Z,19.90
2018-05-15T05:19:53.647Z,19.90
2018-05-15T05:20:31.220Z,20.00
2018-05-15T05:21:08.843Z,20.00
2018-05-15T05:21:46.385Z,20.00
2018-05-15T05:22:23.959Z,19.90
2018-05-15T05:23:01.388Z,19.90
2018-05-15T05:23:39.005Z,19.90
2018-05-15T05:24:16.551Z,19.90
2018-05-15T05:24:54.906Z,19.90
2018-05-15T05:25:33.190Z,20.00
2018-05-15T05:26:10.524Z,20.00
2018-05-15T05:26:47.877Z,20.00
2018-05-15T05:27:25.426Z,20.00
2018-05-15T05:28:02.864Z,20.00
2018-05-15T05:28:40.500Z,20.00
2018-05-15T05:29:17.860Z,19.90
2018-05-15T05:29:55.432Z,19.80
2018-05-15T05:30:32.803Z,19.90
2018-05-15T05:31:10.407Z,19.90
2018-05-15T05:31:48.002Z,19.80
2018-05-15T05:32:25.552Z,19.90
2018-05-15T05:33:02.897Z,19.80
2018-05-15T05:33:40.301Z,19.80
2018-05-15T05:34:17.789Z,19.70
2018-05-15T05:34:55.336Z,19.70
2018-05-15T05:35:33.761Z,19.60
2018-05-15T05:36:11.323Z,19.60
2018-05-15T05:36:48.710Z,19.60
2018-05-15T05:37:26.182Z,19.50
2018-05-15T05:38:03.699Z,19.60
2018-05-15T05:38:41.970Z,19.60
2018-05-15T05:39:19.551Z,19.60
2018-05-15T05:39:57.191Z,19.60
2018-05-15T05:40:35.330Z,19.60
2018-05-15T05:41:13.438Z,19.60
2018-05-15T05:41:51.038Z,19.60
2018-05-15T05:42:29.395Z,19.60
2018-05-15T05:43:07.495Z,19.60
2018-05-15T05:43:44.785Z,19.60
2018-05-15T05:44:22.387Z,19.60
2018-05-15T05:44:59.934Z,19.60
2018-05-15T05:45:37.266Z,19.60
2018-05-15T05:46:14.704Z,19.50
2018-05-15T05:46:52.263Z,19.50
2018-05-15T05:47:29.887Z,19.40
2018-05-15T05:48:07.488Z,19.40
2018-05-15T05:48:45.070Z,19.40
2018-05-15T05:49:22.611Z,19.50
2018-05-15T05:50:00.097Z,19.50
2018-05-15T05:50:37.414Z,19.60
2018-05-15T05:51:15.071Z,19.60
2018-05-15T05:51:53.537Z,19.60
2018-05-15T05:52:31.152Z,19.60
2018-05-15T05:53:08.726Z,19.60
2018-05-15T05:53:46.289Z,19.60
2018-05-15T05:54:23.822Z,19.60
2018-05-15T05:55:01.370Z,19.60
2018-05-15T05:55:39.647Z,19.60
2018-05-15T05:56:17.224Z,19.60
2018-05-15T05:56:54.783Z,19.70
2018-05-15T05:57:32.378Z,19.70
2018-05-15T05:58:09.692Z,19.80
2018-05-15T05:58:47.258Z,19.90
2018-05-15T05:59:24.885Z,19.90
2018-05-15T06:00:02.410Z,20.00
2018-05-15T06:00:39.858Z,20.00
2018-05-15T06:01:17.974Z,19.90
2018-05-15T06:01:55.578Z,19.90
2018-05-15T06:02:33.013Z,19.90
2018-05-15T06:03:10.522Z,19.90
2018-05-15T06:03:48.093Z,19.90
2018-05-15T06:04:26.392Z,19.90
2018-05-15T06:05:03.734Z,19.90
2018-05-15T06:05:41.309Z,19.90
2018-05-15T06:06:18.834Z,20.00
2018-05-15T06:06:56.131Z,20.00
2018-05-15T06:07:33.678Z,20.00
2018-05-15T06:08:11.244Z,20.00
2018-05-15T06:08:48.747Z,20.00
2018-05-15T06:09:26.347Z,20.00
2018-05-15T06:10:04.536Z,19.80
2018-05-15T06:10:41.997Z,19.80
2018-05-15T06:11:19.430Z,19.80
2018-05-15T06:11:56.961Z,19.80
2018-05-15T06:12:34.570Z,19.80
2018-05-15T06:13:12.030Z,19.80
2018-05-15T06:13:49.623Z,19.70
2018-05-15T06:14:27.802Z,19.70
2018-05-15T06:15:05.165Z,19.70
2018-05-15T06:15:42.713Z,19.80
2018-05-15T06:16:20.853Z,19.80
2018-05-15T06:16:58.447Z,19.80
2018-05-15T06:17:36.023Z,19.80
2018-05-15T06:18:13.487Z,19.70
2018-05-15T06:18:50.813Z,19.70
2018-05-15T06:19:28.344Z,19.70
2018-05-15T06:20:05.738Z,19.60
2018-05-15T06:20:43.337Z,19.60
2018-05-15T06:21:20.672Z,19.60
2018-05-15T06:21:58.181Z,19.60
2018-05-15T06:22:35.744Z,19.50
2018-05-15T06:23:13.339Z,19.60
2018-05-15T06:23:50.875Z,19.60
2018-05-15T06:24:28.398Z,19.60
2018-05-15T06:25:05.842Z,19.60
2018-05-15T06:25:43.464Z,19.60
2018-05-15T06:26:21.012Z,19.60
2018-05-15T06:26:58.569Z,19.60
2018-05-15T06:27:36.013Z,19.60
2018-05-15T06:28:13.458Z,19.60
2018-05-15T06:28:50.948Z,19.60
2018-05-15T06:29:28.409Z,19.60
2018-05-15T06:30:06.029Z,19.60
2018-05-15T06:30:44.193Z,19.60
2018-05-15T06:31:21.751Z,19.60
2018-05-15T06:31:59.872Z,19.50
2018-05-15T06:32:37.440Z,19.50
2018-05-15T06:33:15.029Z,19.40
2018-05-15T06:33:52.611Z,19.40
2018-05-15T06:34:30.106Z,19.40
2018-05-15T06:35:07.688Z,19.30
2018-05-15T06:35:45.171Z,19.30
2018-05-15T06:36:22.740Z,19.40
2018-05-15T06:37:00.919Z,19.40
2018-05-15T06:37:39.231Z,19.40
2018-05-15T06:38:16.800Z,19.40
2018-05-15T06:38:54.186Z,19.40
2018-05-15T06:39:31.580Z,19.40
2018-05-15T06:40:08.996Z,19.40
2018-05-15T06:40:46.526Z,19.40
2018-05-15T06:41:24.100Z,19.40
2018-05-15T06:42:01.462Z,19.50
2018-05-15T06:42:39.069Z,19.60
2018-05-15T06:43:16.676Z,19.70
2018-05-15T06:43:54.213Z,19.70
2018-05-15T06:44:31.655Z,19.70
2018-05-15T06:45:09.179Z,19.70
2018-05-15T06:45:46.785Z,19.60
2018-05-15T06:46:24.257Z,19.60
2018-05-15T06:47:01.825Z,19.60
2018-05-15T06:47:39.394Z,19.50
2018-05-15T06:48:16.998Z,19.50
2018-05-15T06:48:54.565Z,19.50
2018-05-15T06:49:32.871Z,19.50
2018-05-15T06:50:10.433Z,19.50
2018-05-15T06:50:47.998Z,19.50
2018-05-15T06:51:25.474Z,19.50
2018-05-15T06:52:02.972Z,19.50
2018-05-15T06:52:40.321Z,19.60
2018-05-15T06:53:18.451Z,19.60
2018-05-15T06:53:56.044Z,19.60
2018-05-15T06:54:34.193Z,19.50
2018-05-15T06:55:11.727Z,19.50
2018-05-15T06:55:49.163Z,19.50
2018-05-15T06:56:26.695Z,19.40
2018-05-15T06:57:04.241Z,19.50
2018-05-15T06:57:41.715Z,19.40
2018-05-15T06:58:19.330Z,19.50
2018-05-15T06:58:56.654Z,19.50
2018-05-15T06:59:34.266Z,19.50
2018-05-15T07:00:11.763Z,19.60
2018-05-15T07:00:49.323Z,19.60
2018-05-15T07:01:26.922Z,19.60
2018-05-15T07:02:04.533Z,19.50
2018-05-15T07:02:42.022Z,19.50
2018-05-15T07:03:19.341Z,19.50
2018-05-15T07:03:56.897Z,19.50
2018-05-15T07:04:34.414Z,19.50
2018-05-15T07:05:11.963Z,19.50
2018-05-15T07:05:49.335Z,19.40
2018-05-15T07:06:26.955Z,19.50
2018-05-15T07:07:05.123Z,19.60
2018-05-15T07:07:42.746Z,19.60
2018-05-15T07:08:20.255Z,19.60
2018-05-15T07:08:57.635Z,19.60
2018-05-15T07:09:35.266Z,19.60
2018-05-15T07:10:12.782Z,19.60
2018-05-15T07:10:50.108Z,19.60
2018-05-15T07:11:27.486Z,19.60
2018-05-15T07:12:04.955Z,19.60
2018-05-15T07:12:43.067Z,19.50
2018-05-15T07:13:20.621Z,19.50
2018-05-15T07:13:58.806Z,19.40
2018-05-15T07:14:36.251Z,19.50
2018-05-15T07:15:13.806Z,19.40
2018-05-15T07:15:51.401Z,19.40
2018-05-15T07:16:28.969Z,19.40
2018-05-15T07:17:06.454Z,19.40
2018-05-15T07:17:44.027Z,19.40
2018-05-15T07:18:21.595Z,19.40
2018-05-15T07:18:59.704Z,19.30
2018-05-15T07:19:37.183Z,19.30
2018-05-15T07:20:14.683Z,19.30
2018-05-15T07:20:52.282Z,19.30
2018-05-15T07:21:29.698Z,19.30
2018-05-15T07:22:07.308Z,19.40
2018-05-15T07:22:44.894Z,19.40
2018-05-15T07:23:22.259Z,19.50
2018-05-15T07:23:59.594Z,19.60
2018-05-15T07:24:36.928Z,19.60
2018-05-15T07:25:15.314Z,19.70
2018-05-15T07:25:52.899Z,19.70
2018-05-15T07:26:30.465Z,19.60
2018-05-15T07:27:07.827Z,19.60
2018-05-15T07:27:45.381Z,19.60
2018-05-15T07:28:23.496Z,19.60
2018-05-15T07:29:01.038Z,19.60
2018-05-15T07:29:39.373Z,19.50
2018-05-15T07:30:16.731Z,19.50
2018-05-15T07:30:54.095Z,19.50
2018-05-15T07:31:31.482Z,19.60
2018-05-15T07:32:09.031Z,19.60
2018-05-15T07:32:47.216Z,19.70
2018-05-15T07:33:24.767Z,19.70
2018-05-15T07:34:02.356Z,19.70
2018-05-15T07:34:39.705Z,19.70
2018-05-15T07:35:17.218Z,19.70
2018-05-15T07:35:54.793Z,19.70
2018-05-15T07:36:32.879Z,19.70
2018-05-15T07:37:10.461Z,19.70
2018-05-15T07:37:48.065Z,19.70
2018-05-15T07:38:25.606Z,19.70
2018-05-15T07:39:03.742Z,19.80
2018-05-15T07:39:41.323Z,19.70
2018-05-15T07:40:18.807Z,19.70
2018-05-15T07:40:56.313Z,19.60
2018-05-15T07:41:33.674Z,19.60
2018-05-15T07:42:11.216Z,19.60
2018-05-15T07:42:48.600Z,19.60
2018-05-15T07:43:26.177Z,19.60
2018-05-15T07:44:03.525Z,19.50
2018-05-15T07:44:40.910Z,19.50
2018-05-15T07:45:18.511Z,19.50
2018-05-15T07:45:56.810Z,19.40
2018-05-15T07:46:34.203Z,19.40
2018-05-15T07:47:11.567Z,19.40
2018-05-15T07:47:48.903Z,19.50
2018-05-15T07:48:26.415Z,19.50
2018-05-15T07:49:03.998Z,19.60
2018-05-15T07:49:42.289Z,19.70
2018-05-15T07:50:20.395Z,19.70
2018-05-15T07:50:58.699Z,19.60
2018-05-15T07:51:36.878Z,19.60
2018-05-15T07:52:14.458Z,19.60
2018-05-15T07:52:52.037Z,19.70
2018-05-15T07:53:29.415Z,19.70
2018-05-15T07:54:07.007Z,19.70
2018-05-15T07:54:44.564Z,19.70
2018-05-15T07:55:22.669Z,19.70
2018-05-15T07:56:00.022Z,19.70
2018-05-15T07:56:37.397Z,19.70
2018-05-15T07:57:14.771Z,19.70
2018-05-15T07:57:52.314Z,19.70
2018-05-15T07:58:29.802Z,19.60
2018-05-15T07:59:08.142Z,19.60
2018-05-15T07:59:46.246Z,19.60
2018-05-15T08:00:23.735Z,19.60
2018-05-15T08:01:01.087Z,19.70
2018-05-15T08:01:38.392Z,19.70
2018-05-15T08:02:15.942Z,19.70
2018-05-15T08:02:53.278Z,19.70
2018-05-15T08:03:30.815Z,19.70
2018-05-15T08:04:08.179Z,19.70
2018-05-15T08:04:45.543Z,19.60